createdAt,value
2023-03-23T15:59:56.961Z,0.90
2023-03-23T16:02:25.489Z,1.00
2023-03-23T16:04:52.635Z,1.00
2023-03-23T16:07:21.916Z,1.30
2023-03-23T16:09:48.751Z,1.02
2023-03-23T16:12:15.438Z,1.17
2023-03-23T16:14:42.503Z,1.23
2023-03-23T16:17:19.797Z,1.40
2023-03-23T16:19:46.483Z,1.60
2023-03-23T16:22:12.990Z,1.20
2023-03-23T16:24:39.626Z,1.40
2023-03-23T16:27:06.420Z,1.35
2023-03-23T16:29:54.090Z,1.42
2023-03-23T16:32:19.958Z,1.10
2023-03-23T16:34:49.934Z,1.30
2023-03-23T16:37:17.416Z,1.20
2023-03-23T16:39:44.379Z,1.40
2023-03-23T16:42:11.264Z,1.30
2023-03-23T16:44:38.106Z,1.20
2023-03-23T16:47:05.038Z,1.42
2023-03-23T16:49:31.701Z,1.40
2023-03-23T16:52:00.990Z,1.40
2023-03-23T16:54:27.913Z,1.25
2023-03-23T16:56:54.599Z,1.33
2023-03-23T16:59:21.365Z,1.30
2023-03-23T17:01:48.451Z,1.05
2023-03-23T17:04:15.975Z,1.48
2023-03-23T17:06:44.184Z,1.25
2023-03-23T17:09:10.888Z,1.55
2023-03-23T17:11:37.841Z,1.20
2023-03-23T17:14:04.487Z,1.20
2023-03-23T17:16:31.395Z,1.30
2023-03-23T17:18:58.197Z,1.13
2023-03-23T17:21:26.162Z,1.10
2023-03-23T17:23:53.105Z,1.30
2023-03-23T17:26:19.866Z,1.30
2023-03-23T17:28:46.736Z,1.30
2023-03-23T17:31:13.928Z,1.30
2023-03-23T17:33:40.892Z,1.25
2023-03-23T17:36:07.906Z,1.05
2023-03-23T17:38:34.812Z,1.30
2023-03-23T17:41:02.086Z,1.60
2023-03-23T17:43:28.752Z,1.40
2023-03-23T17:45:56.269Z,1.40
2023-03-23T17:48:23.467Z,1.13
2023-03-23T17:50:50.299Z,1.20
2023-03-23T17:53:18.880Z,1.50
2023-03-23T17:55:46.416Z,1.30
2023-03-23T17:58:13.192Z,1.15
2023-03-23T18:00:40.058Z,1.30
2023-03-23T18:03:06.817Z,1.42
2023-03-23T18:05:34.460Z,1.40
2023-03-23T18:08:01.628Z,1.58
2023-03-23T18:10:28.321Z,1.60
2023-03-23T18:12:55.396Z,1.58
2023-03-23T18:15:22.676Z,1.90
2023-03-23T18:18:10.514Z,1.70
2023-03-23T18:20:37.266Z,1.88
2023-03-23T18:23:04.890Z,1.88
2023-03-23T18:25:31.536Z,1.67
2023-03-23T18:27:58.080Z,1.80
2023-03-23T18:30:31.704Z,1.52
2023-03-23T18:32:58.470Z,1.95
2023-03-23T18:35:25.276Z,1.70
2023-03-23T18:37:52.157Z,1.98
2023-03-23T18:40:20.138Z,1.80
2023-03-23T18:42:46.875Z,1.85
2023-03-23T18:45:13.634Z,2.35
2023-03-23T18:47:40.485Z,1.88
2023-03-23T18:50:07.944Z,2.00
2023-03-23T18:52:34.990Z,2.13
2023-03-23T18:55:02.053Z,2.15
2023-03-23T18:57:29.006Z,2.05
2023-03-23T18:59:56.332Z,2.10
2023-03-23T19:02:24.154Z,1.98
2023-03-23T19:04:51.198Z,2.08
2023-03-23T19:07:18.834Z,1.77
2023-03-23T19:09:47.241Z,2.00
2023-03-23T19:12:15.911Z,1.73
2023-03-23T19:14:43.193Z,1.95
2023-03-23T19:17:10.547Z,1.90
2023-03-23T19:19:40.058Z,1.95
2023-03-23T19:22:08.723Z,2.15
2023-03-23T19:24:35.497Z,1.92
2023-03-23T19:27:02.407Z,2.17
2023-03-23T19:29:29.482Z,1.80
2023-03-23T19:31:56.966Z,1.55
2023-03-23T19:34:25.269Z,2.03
2023-03-23T19:36:56.363Z,2.05
2023-03-23T19:39:31.091Z,2.05
2023-03-23T19:42:00.442Z,2.00
2023-03-23T19:44:28.699Z,1.90
2023-03-23T19:46:56.329Z,2.15
2023-03-23T19:49:23.038Z,2.22
2023-03-23T19:51:49.732Z,1.90
2023-03-23T19:54:16.797Z,2.10
2023-03-23T19:56:43.610Z,2.33
2023-03-23T19:59:11.717Z,1.88
2023-03-23T20:01:39.054Z,2.00
2023-03-23T20:04:07.114Z,1.95
2023-03-23T20:06:35.689Z,2.28
2023-03-23T20:09:03.107Z,1.90
2023-03-23T20:11:30.559Z,2.38
2023-03-23T20:13:57.685Z,2.13
2023-03-23T20:16:26.319Z,2.10
2023-03-23T20:18:53.641Z,2.55
2023-03-23T20:21:22.832Z,2.17
2023-03-23T20:23:51.487Z,2.40
2023-03-23T20:26:20.103Z,2.42
2023-03-23T20:28:47.632Z,2.38
2023-03-23T20:31:19.477Z,2.53
2023-03-23T20:34:00.187Z,2.20
2023-03-23T20:36:29.989Z,2.17
2023-03-23T20:39:01.926Z,2.45
2023-03-23T20:41:28.773Z,2.00
2023-03-23T20:43:55.606Z,2.30
2023-03-23T20:46:23.653Z,2.45
2023-03-23T20:48:51.010Z,2.47
2023-03-23T20:51:19.869Z,2.13
2023-03-23T20:53:46.858Z,2.38
2023-03-23T20:56:14.385Z,2.45
2023-03-23T20:58:41.208Z,2.20
2023-03-23T21:01:09.369Z,2.33
2023-03-23T21:03:40.026Z,2.50
2023-03-23T21:06:08.035Z,2.58
2023-03-23T21:08:36.791Z,2.47
2023-03-23T21:11:04.668Z,2.00
2023-03-23T21:13:31.641Z,1.95
2023-03-23T21:15:58.597Z,2.42
2023-03-23T21:18:25.398Z,2.55
2023-03-23T21:20:52.333Z,2.40
2023-03-23T21:23:22.572Z,2.25
2023-03-23T21:25:49.442Z,2.58
2023-03-23T21:28:17.533Z,2.63
2023-03-23T21:30:45.712Z,2.58
2023-03-23T21:33:13.485Z,2.55
2023-03-23T21:35:41.873Z,2.75
2023-03-23T21:38:14.504Z,2.30
2023-03-23T21:40:42.577Z,2.35
2023-03-23T21:43:16.454Z,2.83
2023-03-23T21:45:45.570Z,2.40
2023-03-23T21:48:13.018Z,2.35
2023-03-23T21:50:42.457Z,2.40
2023-03-23T21:53:13.079Z,2.50
2023-03-23T21:55:42.608Z,2.42
2023-03-23T21:58:09.876Z,2.60
2023-03-23T22:00:36.730Z,2.60
2023-03-23T22:03:07.368Z,2.55
2023-03-23T22:05:34.227Z,2.30
2023-03-23T22:08:01.865Z,2.25
2023-03-23T22:10:28.622Z,2.47
2023-03-23T22:12:56.314Z,2.40
2023-03-23T22:15:27.940Z,2.35
2023-03-23T22:17:55.188Z,2.42
2023-03-23T22:20:21.928Z,2.30
2023-03-23T22:22:49.145Z,2.35
2023-03-23T22:25:15.881Z,2.80
2023-03-23T22:27:42.901Z,2.33
2023-03-23T22:30:09.992Z,2.25
2023-03-23T22:32:38.723Z,2.30
2023-03-23T22:35:07.286Z,2.50
2023-03-23T22:37:34.117Z,2.50
2023-03-23T22:40:00.871Z,2.30
2023-03-23T22:42:30.487Z,2.17
2023-03-23T22:45:00.357Z,2.30
2023-03-23T22:47:26.986Z,2.47
2023-03-23T22:49:56.897Z,2.30
2023-03-23T22:52:23.824Z,2.60
2023-03-23T22:54:51.356Z,2.42
2023-03-23T22:57:23.777Z,2.63
2023-03-23T22:59:51.329Z,2.25
2023-03-23T23:02:18.277Z,2.60
2023-03-23T23:04:45.005Z,2.63
2023-03-23T23:07:14.460Z,2.50
2023-03-23T23:09:42.221Z,2.67
2023-03-23T23:12:12.748Z,2.47
2023-03-23T23:14:41.315Z,2.47
2023-03-23T23:17:08.347Z,2.30
2023-03-23T23:19:35.347Z,2.33
2023-03-23T23:22:18.068Z,2.30
2023-03-23T23:24:46.694Z,2.30
2023-03-23T23:27:13.553Z,2.35
2023-03-23T23:29:40.746Z,2.33
2023-03-23T23:32:07.551Z,2.25
2023-03-23T23:34:35.067Z,2.45
2023-03-23T23:37:01.648Z,2.30
2023-03-23T23:39:28.372Z,2.55
2023-03-23T23:41:55.916Z,2.40
2023-03-23T23:44:22.392Z,1.90
2023-03-23T23:46:49.455Z,2.08
2023-03-23T23:49:16.169Z,2.20
2023-03-23T23:51:43.463Z,2.00
2023-03-23T23:54:10.153Z,2.10
2023-03-23T23:56:36.776Z,1.90
2023-03-23T23:59:03.666Z,2.00
